createdAt,value
2023-05-27T00:01:33.378Z,97861.06
2023-05-27T00:03:36.241Z,97854.84
2023-05-27T00:05:39.026Z,97859.38
2023-05-27T00:07:42.214Z,97855.59
2023-05-27T00:09:44.956Z,97853.78
2023-05-27T00:11:47.579Z,97849.19
2023-05-27T00:13:51.536Z,97850.88
2023-05-27T00:15:54.365Z,97848.19
2023-05-27T00:17:57.202Z,97851.56
2023-05-27T00:20:06.874Z,97852.41
2023-05-27T00:22:09.559Z,97839.16
2023-05-27T00:24:12.403Z,97851.41
2023-05-27T00:26:15.569Z,97848.00
2023-05-27T00:28:19.389Z,97848.88
2023-05-27T00:30:23.388Z,97851.56
2023-05-27T00:32:26.137Z,97850.81
2023-05-27T00:34:28.794Z,97852.78
2023-05-27T00:36:32.765Z,97856.31
2023-05-27T00:38:36.497Z,97852.91
2023-05-27T00:40:41.739Z,97851.19
2023-05-27T00:42:44.460Z,97855.59
2023-05-27T00:44:49.981Z,97850.44
2023-05-27T00:46:54.199Z,97852.16
2023-05-27T00:48:56.984Z,97855.69
2023-05-27T00:50:59.719Z,97855.78
2023-05-27T00:53:02.852Z,97859.38
2023-05-27T00:55:06.310Z,97847.38
2023-05-27T00:57:08.943Z,97850.25
2023-05-27T00:59:11.715Z,97849.56
2023-05-27T01:01:14.385Z,97852.28
2023-05-27T01:03:18.802Z,97852.38
2023-05-27T01:05:22.617Z,97842.88
2023-05-27T01:07:36.422Z,97847.28
2023-05-27T01:09:43.635Z,97848.22
2023-05-27T01:11:53.211Z,97844.81
2023-05-27T01:14:01.057Z,97841.41
2023-05-27T01:16:07.772Z,97847.59
2023-05-27T01:18:11.569Z,97833.69
2023-05-27T01:20:16.812Z,97829.25
2023-05-27T01:22:21.438Z,97830.28
2023-05-27T01:24:25.406Z,97833.81
2023-05-27T01:26:28.057Z,97829.59
2023-05-27T01:28:30.843Z,97828.13
2023-05-27T01:30:33.891Z,97827.44
2023-05-27T01:32:42.313Z,97827.63
2023-05-27T01:34:52.324Z,97829.56
2023-05-27T01:37:00.771Z,97824.38
2023-05-27T01:39:05.975Z,97824.38
2023-05-27T01:41:11.751Z,97821.16
2023-05-27T01:43:16.672Z,97817.91
2023-05-27T01:45:19.459Z,97816.53
2023-05-27T01:47:22.092Z,97809.97
2023-05-27T01:49:24.720Z,97809.38
2023-05-27T01:51:27.349Z,97812.56
2023-05-27T01:53:30.044Z,97812.94
2023-05-27T01:55:32.832Z,97810.66
2023-05-27T01:57:36.843Z,97814.41
2023-05-27T01:59:40.075Z,97803.19
2023-05-27T02:01:43.163Z,97806.03
2023-05-27T02:03:46.105Z,97811.44
2023-05-27T02:05:48.754Z,97805.66
2023-05-27T02:07:51.392Z,97803.19
2023-05-27T02:09:54.060Z,97807.13
2023-05-27T02:11:56.641Z,97801.09
2023-05-27T02:14:02.275Z,97802.94
2023-05-27T02:16:05.090Z,97800.38
2023-05-27T02:18:07.754Z,97808.50
2023-05-27T02:20:11.280Z,97806.09
2023-05-27T02:22:14.000Z,97804.56
2023-05-27T02:24:16.637Z,97806.50
2023-05-27T02:26:19.494Z,97805.56
2023-05-27T02:28:22.092Z,97806.50
2023-05-27T02:30:26.108Z,97806.78
2023-05-27T02:32:32.216Z,97799.13
2023-05-27T02:34:38.070Z,97803.84
2023-05-27T02:36:40.772Z,97801.31
2023-05-27T02:38:43.370Z,97800.00
2023-05-27T02:40:46.137Z,97795.75
2023-05-27T02:42:48.741Z,97804.69
2023-05-27T02:44:51.374Z,97798.50
2023-05-27T02:46:55.347Z,97802.06
2023-05-27T02:48:57.952Z,97799.53
2023-05-27T02:51:00.571Z,97799.59
2023-05-27T02:53:03.189Z,97798.97
2023-05-27T02:55:07.093Z,97802.72
2023-05-27T02:57:09.734Z,97801.06
2023-05-27T02:59:12.320Z,97800.16
2023-05-27T03:01:15.110Z,97800.25
2023-05-27T03:03:19.339Z,97799.44
2023-05-27T03:05:22.153Z,97793.66
2023-05-27T03:07:24.799Z,97791.34
2023-05-27T03:09:27.390Z,97794.13
2023-05-27T03:11:30.003Z,97803.81
2023-05-27T03:13:32.617Z,97794.25
2023-05-27T03:15:36.308Z,97797.78
2023-05-27T03:17:39.750Z,97798.84
2023-05-27T03:19:44.354Z,97799.84
2023-05-27T03:21:46.984Z,97799.13
2023-05-27T03:23:49.611Z,97795.56
2023-05-27T03:25:52.564Z,97805.09
2023-05-27T03:27:55.287Z,97798.78
2023-05-27T03:29:57.929Z,97800.41
2023-05-27T03:32:00.969Z,97802.81
2023-05-27T03:34:03.719Z,97797.63
2023-05-27T03:36:09.306Z,97799.34
2023-05-27T03:38:11.956Z,97793.53
2023-05-27T03:40:14.636Z,97802.47
2023-05-27T03:42:17.332Z,97801.81
2023-05-27T03:44:19.946Z,97798.50
2023-05-27T03:46:22.633Z,97804.63
2023-05-27T03:48:25.403Z,97797.69
2023-05-27T03:50:28.006Z,97793.44
2023-05-27T03:52:32.028Z,97797.00
2023-05-27T03:54:34.700Z,97794.50
2023-05-27T03:56:37.332Z,97796.28
2023-05-27T03:58:40.047Z,97800.66
2023-05-27T04:00:42.877Z,97800.66
2023-05-27T04:02:45.627Z,97795.41
2023-05-27T04:04:48.316Z,97795.47
2023-05-27T04:06:51.010Z,97795.47
2023-05-27T04:08:55.026Z,97800.66
2023-05-27T04:10:57.737Z,97797.84
2023-05-27T04:13:00.384Z,97802.09
2023-05-27T04:15:03.013Z,97794.09
2023-05-27T04:17:05.649Z,97795.56
2023-05-27T04:19:08.346Z,97798.84
2023-05-27T04:21:11.016Z,97803.09
2023-05-27T04:23:13.633Z,97807.38
2023-05-27T04:25:17.648Z,97799.50
2023-05-27T04:27:20.225Z,97804.75
2023-05-27T04:29:23.680Z,97808.50
2023-05-27T04:31:29.629Z,97808.69
2023-05-27T04:33:32.385Z,97806.22
2023-05-27T04:35:35.651Z,97807.22
2023-05-27T04:37:38.728Z,97810.75
2023-05-27T04:39:46.499Z,97806.44
2023-05-27T04:41:50.562Z,97808.13
2023-05-27T04:43:53.170Z,97809.06
2023-05-27T04:45:57.035Z,97816.94
2023-05-27T04:47:59.844Z,97810.69
2023-05-27T04:50:03.882Z,97803.66
2023-05-27T04:52:08.232Z,97807.16
2023-05-27T04:54:10.959Z,97804.44
2023-05-27T04:56:16.086Z,97803.38
2023-05-27T04:58:20.131Z,97801.34
2023-05-27T05:00:37.206Z,97805.44
2023-05-27T05:06:03.486Z,97808.22
2023-05-27T05:08:06.711Z,97807.09
2023-05-27T05:10:10.753Z,97808.69
2023-05-27T05:12:13.868Z,97805.75
2023-05-27T05:14:17.831Z,97804.69
2023-05-27T05:16:20.682Z,97812.28
2023-05-27T05:18:23.401Z,97811.34
2023-05-27T05:20:26.376Z,97806.81
2023-05-27T05:22:29.996Z,97802.19
2023-05-27T05:24:32.712Z,97804.66
2023-05-27T05:26:35.286Z,97808.06
2023-05-27T05:28:37.901Z,97806.22
2023-05-27T05:30:41.863Z,97807.91
2023-05-27T05:32:44.555Z,97808.63
2023-05-27T05:34:47.321Z,97802.91
2023-05-27T05:36:49.935Z,97809.75
2023-05-27T05:38:52.563Z,97808.78
2023-05-27T05:40:55.505Z,97811.25
2023-05-27T05:43:00.451Z,97805.78
2023-05-27T05:45:03.088Z,97811.75
2023-05-27T05:47:07.256Z,97810.72
2023-05-27T05:49:10.209Z,97810.56
2023-05-27T05:51:12.989Z,97815.63
2023-05-27T05:53:15.663Z,97811.28
2023-05-27T05:55:18.311Z,97815.53
2023-05-27T05:57:20.899Z,97813.53
2023-05-27T05:59:23.542Z,97809.88
2023-05-27T06:01:28.019Z,97810.66
2023-05-27T06:03:32.132Z,97811.53
2023-05-27T06:05:34.896Z,97810.53
2023-05-27T06:07:37.634Z,97803.41
2023-05-27T06:09:40.307Z,97805.13
2023-05-27T06:11:42.934Z,97804.97
2023-05-27T06:13:45.682Z,97801.34
2023-05-27T06:15:48.339Z,97794.28
2023-05-27T06:17:51.059Z,97803.09
2023-05-27T06:19:55.008Z,97804.66
2023-05-27T06:21:57.644Z,97804.50
2023-05-27T06:24:00.782Z,97798.22
2023-05-27T06:26:04.556Z,97802.56
2023-05-27T06:28:07.371Z,97799.78
2023-05-27T06:30:10.847Z,97801.47
2023-05-27T06:32:13.472Z,97806.66
2023-05-27T06:34:17.174Z,97801.31
2023-05-27T06:36:21.230Z,97806.50
2023-05-27T06:38:23.856Z,97803.78
2023-05-27T06:40:26.583Z,97801.09
2023-05-27T06:42:29.211Z,97809.75
2023-05-27T06:44:31.844Z,97805.13
2023-05-27T06:46:34.624Z,97810.22
2023-05-27T06:48:37.390Z,97804.97
2023-05-27T06:50:41.902Z,97795.13
2023-05-27T06:52:45.950Z,97795.84
2023-05-27T06:54:49.260Z,97802.72
2023-05-27T06:56:52.138Z,97794.75
2023-05-27T06:58:54.760Z,97794.59
2023-05-27T07:00:57.434Z,97788.38
2023-05-27T07:03:01.587Z,97793.41
2023-05-27T07:05:04.689Z,97798.44
2023-05-27T07:07:07.359Z,97792.06
2023-05-27T07:09:12.213Z,97793.69
2023-05-27T07:11:14.882Z,97794.53
2023-05-27T07:13:17.488Z,97796.25
2023-05-27T07:15:20.336Z,97803.03
2023-05-27T07:17:23.015Z,97801.94
2023-05-27T07:19:25.637Z,97804.50
2023-05-27T07:21:28.378Z,97798.25
2023-05-27T07:23:31.027Z,97800.69
2023-05-27T07:25:35.012Z,97808.41
2023-05-27T07:27:37.711Z,97803.94
2023-05-27T07:29:40.313Z,97800.22
2023-05-27T07:31:43.055Z,97808.84
2023-05-27T07:33:45.735Z,97794.59
2023-05-27T07:35:48.466Z,97790.88
2023-05-27T07:37:51.066Z,97795.97
2023-05-27T07:39:53.758Z,97787.13
2023-05-27T07:41:57.793Z,97791.56
2023-05-27T07:44:00.835Z,97787.97
2023-05-27T07:46:03.555Z,97785.06
2023-05-27T07:48:06.383Z,97788.47
2023-05-27T07:50:10.181Z,97793.66
2023-05-27T07:52:12.814Z,97789.16
2023-05-27T07:54:15.442Z,97782.81
2023-05-27T07:56:18.288Z,97787.97
2023-05-27T07:58:22.286Z,97782.53
2023-05-27T08:00:24.998Z,97782.72
2023-05-27T08:02:27.663Z,97774.72
2023-05-27T08:04:30.435Z,97780.47
2023-05-27T08:06:33.139Z,97779.47
2023-05-27T08:08:35.757Z,97775.75
2023-05-27T08:10:38.356Z,97780.78
2023-05-27T08:12:41.047Z,97769.19
2023-05-27T08:14:45.911Z,97767.25
2023-05-27T08:16:48.652Z,97768.94
2023-05-27T08:18:51.638Z,97759.91
2023-05-27T08:20:54.599Z,97768.59
2023-05-27T08:22:57.525Z,97759.59
2023-05-27T08:25:00.139Z,97753.22
2023-05-27T08:27:03.689Z,97753.03
2023-05-27T08:29:06.601Z,97747.56
2023-05-27T08:31:11.467Z,97755.19
2023-05-27T08:33:14.230Z,97749.84
2023-05-27T08:35:18.148Z,97747.94
2023-05-27T08:37:20.777Z,97748.56
2023-05-27T08:39:23.603Z,97743.88
2023-05-27T08:41:28.110Z,97740.19
2023-05-27T08:43:31.529Z,97738.31
2023-05-27T08:45:34.413Z,97736.25
2023-05-27T08:47:40.930Z,97729.84
2023-05-27T08:49:43.667Z,97733.25
2023-05-27T08:51:47.528Z,97725.91
2023-05-27T08:53:50.544Z,97730.31
2023-05-27T08:55:56.203Z,97723.84
2023-05-27T08:58:00.795Z,97726.47
2023-05-27T09:00:06.239Z,97725.44
2023-05-27T09:02:15.425Z,97724.31
2023-05-27T09:04:19.543Z,97720.06
2023-05-27T09:06:22.289Z,97716.97
2023-05-27T09:08:35.145Z,97722.69
2023-05-27T09:10:38.844Z,97720.81
2023-05-27T09:12:45.321Z,97716.09
2023-05-27T09:14:51.361Z,97712.28
2023-05-27T09:16:53.964Z,97716.50
2023-05-27T09:18:56.577Z,97713.59
2023-05-27T09:21:01.665Z,97713.19
2023-05-27T09:23:06.428Z,97702.47
2023-05-27T09:25:11.458Z,97704.91
2023-05-27T09:27:15.575Z,97709.22
2023-05-27T09:29:20.303Z,97705.38
2023-05-27T09:31:24.098Z,97700.75
2023-05-27T09:33:28.218Z,97691.69
2023-05-27T09:35:31.040Z,97695.16
2023-05-27T09:37:37.063Z,97690.41
2023-05-27T09:39:41.049Z,97690.91
2023-05-27T09:41:43.935Z,97698.63
2023-05-27T09:43:55.793Z,97694.19
2023-05-27T09:46:01.239Z,97690.50
2023-05-27T09:48:08.986Z,97683.13
2023-05-27T09:50:15.242Z,97683.66
2023-05-27T09:52:21.567Z,97673.75
2023-05-27T09:54:26.294Z,97680.44
2023-05-27T09:56:30.351Z,97678.44
2023-05-27T09:58:33.135Z,97677.41
2023-05-27T10:00:35.995Z,97670.84
2023-05-27T10:02:39.779Z,97674.75
2023-05-27T10:04:43.204Z,97668.25
2023-05-27T10:06:46.830Z,97671.66
2023-05-27T10:08:49.625Z,97660.13
2023-05-27T10:10:54.165Z,97662.59
2023-05-27T10:12:59.270Z,97657.81
2023-05-27T10:15:01.958Z,97659.63
2023-05-27T10:17:04.931Z,97655.00
2023-05-27T10:19:12.574Z,97659.75
2023-05-27T10:21:20.595Z,97666.75
2023-05-27T10:23:27.524Z,97664.41
2023-05-27T10:25:38.215Z,97657.00
2023-05-27T10:27:46.324Z,97660.16
2023-05-27T10:29:59.489Z,97651.38
2023-05-27T10:32:02.288Z,97656.88
2023-05-27T10:34:07.012Z,97659.09
2023-05-27T10:36:10.975Z,97649.13
2023-05-27T10:38:18.502Z,97646.19
2023-05-27T10:40:26.391Z,97635.38
2023-05-27T10:42:29.079Z,97640.25
2023-05-27T10:44:35.510Z,97631.38
2023-05-27T10:46:43.069Z,97631.25
2023-05-27T10:48:46.331Z,97624.25
2023-05-27T10:50:53.131Z,97619.72
2023-05-27T10:52:55.847Z,97642.88
2023-05-27T10:54:59.077Z,97638.09
2023-05-27T10:57:03.843Z,97638.22
2023-05-27T10:59:12.043Z,97639.25
2023-05-27T11:01:16.689Z,97639.97
2023-05-27T11:03:22.686Z,97638.94
2023-05-27T11:05:30.613Z,97632.31
2023-05-27T11:07:33.212Z,97633.78
2023-05-27T11:09:45.011Z,97637.81
2023-05-27T11:11:47.667Z,97629.84
2023-05-27T11:13:50.351Z,97625.06
2023-05-27T11:15:53.059Z,97622.81
2023-05-27T11:18:02.440Z,97628.38
2023-05-27T11:20:07.659Z,97623.56
2023-05-27T11:22:12.377Z,97624.31
2023-05-27T11:24:18.860Z,97628.81
2023-05-27T11:26:23.755Z,97624.03
2023-05-27T11:28:26.721Z,97618.06
2023-05-27T11:30:29.865Z,97614.94
2023-05-27T11:32:36.321Z,97602.53
2023-05-27T11:34:40.849Z,97605.06
2023-05-27T11:36:46.498Z,97605.53
2023-05-27T11:38:51.543Z,97602.94
2023-05-27T11:40:54.432Z,97599.81
2023-05-27T11:43:02.187Z,97599.31
2023-05-27T11:45:07.910Z,97592.84
2023-05-27T11:47:10.560Z,97593.53
2023-05-27T11:49:14.714Z,97585.34
2023-05-27T11:51:18.764Z,97587.50
2023-05-27T11:53:21.411Z,97573.44
2023-05-27T11:55:24.233Z,97572.94
2023-05-27T11:57:26.961Z,97569.69
2023-05-27T11:59:29.608Z,97578.97
2023-05-27T12:01:32.258Z,97567.72
2023-05-27T12:03:36.067Z,97571.97
2023-05-27T12:05:38.767Z,97559.19
2023-05-27T12:07:42.811Z,97561.47
2023-05-27T12:09:45.425Z,97560.28
2023-05-27T12:11:48.095Z,97565.31
2023-05-27T12:13:52.223Z,97556.53
2023-05-27T12:15:54.931Z,97552.53
2023-05-27T12:17:57.932Z,97554.69
2023-05-27T12:20:00.623Z,97547.94
2023-05-27T12:22:03.272Z,97552.13
2023-05-27T12:24:07.879Z,97545.63
2023-05-27T12:26:10.956Z,97532.59
2023-05-27T12:28:13.546Z,97537.38
2023-05-27T12:30:16.352Z,97537.97
2023-05-27T12:32:19.076Z,97539.28
2023-05-27T12:34:21.687Z,97543.41
2023-05-27T12:36:24.256Z,97542.53
2023-05-27T12:38:27.070Z,97536.84
2023-05-27T12:40:31.220Z,97527.53
2023-05-27T12:42:34.372Z,97528.97
2023-05-27T12:44:37.012Z,97530.50
2023-05-27T12:46:39.646Z,97530.16
2023-05-27T12:48:42.236Z,97523.25
2023-05-27T12:50:45.058Z,97521.44
2023-05-27T12:52:47.909Z,97511.00
2023-05-27T12:54:50.476Z,97517.63
2023-05-27T12:56:54.512Z,97520.88
2023-05-27T12:58:57.152Z,97518.25
2023-05-27T13:00:59.882Z,97516.91
2023-05-27T13:03:03.003Z,97509.38
2023-05-27T13:05:07.820Z,97512.78
2023-05-27T13:07:12.147Z,97518.28
2023-05-27T13:09:15.115Z,97508.69
2023-05-27T13:11:18.432Z,97502.47
2023-05-27T13:13:23.166Z,97501.25
2023-05-27T13:15:25.999Z,97497.25
2023-05-27T13:17:28.968Z,97500.81
2023-05-27T13:19:31.568Z,97498.09
2023-05-27T13:21:34.245Z,97492.50
2023-05-27T13:23:36.992Z,97493.00
2023-05-27T13:25:39.660Z,97495.38
2023-05-27T13:27:45.533Z,97496.81
2023-05-27T13:29:49.673Z,97483.91
2023-05-27T13:31:52.287Z,97484.03
2023-05-27T13:33:54.890Z,97484.06
2023-05-27T13:35:57.580Z,97478.38
2023-05-27T13:38:01.410Z,97484.53
2023-05-27T13:40:05.550Z,97490.00
2023-05-27T13:42:08.451Z,97483.22
2023-05-27T13:44:11.054Z,97477.66
2023-05-27T13:46:15.102Z,97469.72
2023-05-27T13:48:18.100Z,97477.78
2023-05-27T13:50:20.858Z,97471.28
2023-05-27T13:52:23.604Z,97468.84
2023-05-27T13:54:26.381Z,97472.81
2023-05-27T13:56:28.969Z,97459.47
2023-05-27T13:58:31.602Z,97469.88
2023-05-27T14:00:34.236Z,97468.00
2023-05-27T14:02:38.158Z,97465.50
2023-05-27T14:04:40.802Z,97461.34
2023-05-27T14:06:43.443Z,97464.91
2023-05-27T14:08:46.522Z,97462.28
2023-05-27T14:10:49.091Z,97466.78
2023-05-27T14:12:51.707Z,97458.53
2023-05-27T14:14:54.351Z,97455.66
2023-05-27T14:16:57.693Z,97452.09
2023-05-27T14:19:01.844Z,97455.66
2023-05-27T14:21:04.850Z,97450.53
2023-05-27T14:23:11.730Z,97449.66
2023-05-27T14:25:14.403Z,97451.84
2023-05-27T14:27:17.043Z,97453.13
2023-05-27T14:29:19.725Z,97445.53
2023-05-27T14:31:22.423Z,97445.69
2023-05-27T14:33:25.036Z,97436.53
2023-05-27T14:35:28.973Z,97447.69
2023-05-27T14:37:31.594Z,97451.41
2023-05-27T14:39:34.200Z,97441.72
2023-05-27T14:41:36.807Z,97443.06
2023-05-27T14:43:39.424Z,97443.25
2023-05-27T14:45:42.156Z,97445.34
2023-05-27T14:47:44.777Z,97441.66
2023-05-27T14:49:47.346Z,97442.41
2023-05-27T14:51:51.252Z,97429.38
2023-05-27T14:53:53.828Z,97429.16
2023-05-27T14:55:56.590Z,97431.56
2023-05-27T14:57:59.260Z,97427.19
2023-05-27T15:00:01.959Z,97427.84
2023-05-27T15:02:04.962Z,97433.38
2023-05-27T15:04:07.785Z,97435.34
2023-05-27T15:06:11.621Z,97437.94
2023-05-27T15:08:17.009Z,97425.13
2023-05-27T15:10:19.646Z,97423.97
2023-05-27T15:12:23.306Z,97425.13
2023-05-27T15:14:26.517Z,97425.13
2023-05-27T15:16:29.475Z,97424.66
2023-05-27T15:18:32.119Z,97418.63
2023-05-27T15:20:34.778Z,97410.44
2023-05-27T15:22:37.440Z,97418.31
2023-05-27T15:24:41.399Z,97414.84
2023-05-27T15:26:44.065Z,97412.94
2023-05-27T15:28:46.656Z,97420.47
2023-05-27T15:30:49.360Z,97404.78
2023-05-27T15:32:52.008Z,97409.22
2023-05-27T15:34:54.693Z,97417.28
2023-05-27T15:36:59.413Z,97410.94
2023-05-27T15:39:02.060Z,97410.19
2023-05-27T15:41:06.637Z,97412.91
2023-05-27T15:43:09.786Z,97405.72
2023-05-27T15:45:14.265Z,97410.31
2023-05-27T15:47:16.997Z,97411.00
2023-05-27T15:49:19.603Z,97405.25
2023-05-27T15:51:23.654Z,97405.81
2023-05-27T15:53:26.894Z,97402.13
2023-05-27T15:55:29.577Z,97400.28
2023-05-27T15:57:33.644Z,97396.53
2023-05-27T15:59:36.555Z,97392.91
2023-05-27T16:01:39.433Z,97391.03
2023-05-27T16:03:42.149Z,97394.00
2023-05-27T16:05:44.822Z,97385.56
2023-05-27T16:07:47.408Z,97389.16
2023-05-27T16:09:50.009Z,97390.63
2023-05-27T16:11:52.856Z,97391.31
2023-05-27T16:13:56.831Z,97382.72
2023-05-27T16:15:59.425Z,97383.25
2023-05-27T16:18:02.239Z,97381.47
2023-05-27T16:20:05.797Z,97372.44
2023-05-27T16:22:08.442Z,97379.41
2023-05-27T16:24:11.527Z,97377.75
2023-05-27T16:26:14.871Z,97374.63
2023-05-27T16:28:18.616Z,97365.06
2023-05-27T16:30:22.901Z,97369.47
2023-05-27T16:32:26.290Z,97370.66
2023-05-27T16:34:29.702Z,97372.38
2023-05-27T16:36:32.861Z,97367.00
2023-05-27T16:38:35.891Z,97367.53
2023-05-27T16:40:38.621Z,97366.91
2023-05-27T16:42:41.328Z,97368.44
2023-05-27T16:44:43.914Z,97365.09
2023-05-27T16:46:47.970Z,97370.16
2023-05-27T16:48:50.742Z,97368.66
2023-05-27T16:50:53.352Z,97368.81
2023-05-27T16:52:56.004Z,97363.09
2023-05-27T16:54:59.566Z,97362.09
2023-05-27T16:57:03.396Z,97352.56
2023-05-27T16:59:06.035Z,97365.78
2023-05-27T17:01:08.775Z,97360.75
2023-05-27T17:03:12.930Z,97361.75
2023-05-27T17:05:16.838Z,97362.09
2023-05-27T17:07:19.639Z,97361.94
2023-05-27T17:09:24.125Z,97363.53
2023-05-27T17:11:27.640Z,97365.34
2023-05-27T17:13:30.380Z,97360.66
2023-05-27T17:15:33.131Z,97360.66
2023-05-27T17:17:36.547Z,97364.81
2023-05-27T17:19:40.621Z,97371.31
2023-05-27T17:21:43.301Z,97369.91
2023-05-27T17:23:46.134Z,97374.72
2023-05-27T17:25:48.746Z,97376.31
2023-05-27T17:27:51.486Z,97382.47
2023-05-27T17:29:54.637Z,97374.72
2023-05-27T17:31:57.458Z,97377.84
2023-05-27T17:34:02.390Z,97373.84
2023-05-27T17:36:07.425Z,97377.97
2023-05-27T17:38:12.090Z,97374.78
2023-05-27T17:40:15.072Z,97376.63
2023-05-27T17:42:17.722Z,97374.41
2023-05-27T17:44:20.383Z,97374.22
2023-05-27T17:46:23.309Z,97372.66
2023-05-27T17:48:26.184Z,97376.34
2023-05-27T17:50:29.020Z,97382.41
2023-05-27T17:52:33.046Z,97380.69
2023-05-27T17:54:37.650Z,97380.47
2023-05-27T17:56:40.388Z,97383.78
2023-05-27T17:58:43.059Z,97380.72
2023-05-27T18:00:46.719Z,97377.69
2023-05-27T18:02:50.760Z,97381.25
2023-05-27T18:04:53.828Z,97376.63
2023-05-27T18:06:56.554Z,97383.41
2023-05-27T18:09:00.712Z,97387.00
2023-05-27T18:11:03.856Z,97386.88
2023-05-27T18:13:06.776Z,97384.28
2023-05-27T18:15:10.889Z,97385.16
2023-05-27T18:17:16.031Z,97385.06
2023-05-27T18:19:19.146Z,97385.94
2023-05-27T18:21:21.824Z,97382.84
2023-05-27T18:23:24.912Z,97384.28
2023-05-27T18:25:28.854Z,97386.69
2023-05-27T18:27:31.618Z,97383.94
2023-05-27T18:29:34.909Z,97386.59
2023-05-27T18:31:37.826Z,97392.69
2023-05-27T18:33:40.621Z,97392.25
2023-05-27T18:35:43.818Z,97390.16
2023-05-27T18:37:46.765Z,97390.59
2023-05-27T18:39:49.457Z,97390.03
2023-05-27T18:41:53.645Z,97390.03
2023-05-27T18:43:56.314Z,97382.88
2023-05-27T18:46:00.654Z,97385.41
2023-05-27T18:48:03.481Z,97390.44
2023-05-27T18:50:08.104Z,97391.00
2023-05-27T18:52:11.965Z,97395.91
2023-05-27T18:54:14.575Z,97393.94
2023-05-27T18:56:18.654Z,97392.94
2023-05-27T18:58:22.679Z,97392.81
2023-05-27T19:00:25.363Z,97396.28
2023-05-27T19:02:28.140Z,97397.63
2023-05-27T19:04:31.153Z,97393.38
2023-05-27T19:06:34.062Z,97392.66
2023-05-27T19:08:36.664Z,97393.31
2023-05-27T19:10:40.877Z,97401.13
2023-05-27T19:12:43.558Z,97394.66
2023-05-27T19:14:47.616Z,97402.88
2023-05-27T19:16:50.285Z,97403.97
2023-05-27T19:18:54.375Z,97406.19
2023-05-27T19:20:57.032Z,97412.25
2023-05-27T19:23:02.302Z,97412.94
2023-05-27T19:25:05.456Z,97415.38
2023-05-27T19:27:08.161Z,97417.84
2023-05-27T19:29:10.985Z,97414.16
2023-05-27T19:31:14.945Z,97410.19
2023-05-27T19:33:17.743Z,97418.00
2023-05-27T19:35:20.366Z,97415.91
2023-05-27T19:37:23.071Z,97413.53
2023-05-27T19:39:25.713Z,97412.81
2023-05-27T19:41:28.421Z,97415.00
2023-05-27T19:43:31.048Z,97411.91
2023-05-27T19:45:33.717Z,97420.94
2023-05-27T19:47:37.728Z,97412.34
2023-05-27T19:49:40.350Z,97413.44
2023-05-27T19:51:43.005Z,97416.31
2023-05-27T19:53:45.906Z,97411.88
2023-05-27T19:55:48.540Z,97416.69
2023-05-27T19:57:51.186Z,97418.84
2023-05-27T19:59:54.376Z,97416.19
2023-05-27T20:01:57.017Z,97421.63
2023-05-27T20:04:01.290Z,97417.75
2023-05-27T20:06:04.017Z,97414.03
2023-05-27T20:08:06.624Z,97419.56
2023-05-27T20:10:10.540Z,97419.47
2023-05-27T20:12:13.171Z,97422.72
2023-05-27T20:14:20.838Z,97421.25
2023-05-27T20:16:24.333Z,97422.34
2023-05-27T20:18:27.988Z,97421.63
2023-05-27T20:20:37.675Z,97426.31
2023-05-27T20:22:41.405Z,97423.16
2023-05-27T20:24:44.135Z,97419.75
2023-05-27T20:26:46.867Z,97424.03
2023-05-27T20:28:49.492Z,97424.03
2023-05-27T20:30:53.078Z,97422.19
2023-05-27T20:32:56.387Z,97416.69
2023-05-27T20:34:59.087Z,97425.44
2023-05-27T20:37:03.062Z,97422.59
2023-05-27T20:39:05.753Z,97425.09
2023-05-27T20:41:09.650Z,97429.13
2023-05-27T20:43:12.357Z,97431.28
2023-05-27T20:45:16.144Z,97428.75
2023-05-27T20:47:18.870Z,97427.25
2023-05-27T20:49:21.537Z,97429.78
2023-05-27T20:51:24.577Z,97424.16
2023-05-27T20:53:28.636Z,97425.34
2023-05-27T20:55:31.298Z,97422.91
2023-05-27T20:57:33.894Z,97418.94
2023-05-27T20:59:36.628Z,97422.13
2023-05-27T21:01:40.829Z,97426.78
2023-05-27T21:03:43.945Z,97414.00
2023-05-27T21:05:47.564Z,97418.56
2023-05-27T21:07:52.443Z,97414.13
2023-05-27T21:09:56.452Z,97413.16
2023-05-27T21:11:59.146Z,97417.28
2023-05-27T21:14:01.847Z,97414.53
2023-05-27T21:16:04.595Z,97412.81
2023-05-27T21:18:10.056Z,97410.50
2023-05-27T21:20:13.507Z,97408.19
2023-05-27T21:22:16.537Z,97410.94
2023-05-27T21:24:19.407Z,97407.03
2023-05-27T21:26:23.605Z,97402.94
2023-05-27T21:28:26.467Z,97396.28
2023-05-27T21:30:29.106Z,97400.50
2023-05-27T21:32:31.821Z,97407.06
2023-05-27T21:34:34.517Z,97409.78
2023-05-27T21:36:37.352Z,97405.44
2023-05-27T21:38:40.141Z,97405.66
2023-05-27T21:40:42.795Z,97405.75
2023-05-27T21:42:46.840Z,97408.38
2023-05-27T21:44:50.688Z,97403.84
2023-05-27T21:46:54.001Z,97400.59
2023-05-27T21:48:56.662Z,97404.53
2023-05-27T21:50:59.319Z,97403.16
2023-05-27T21:53:04.711Z,97400.28
2023-05-27T21:55:08.175Z,97398.50
2023-05-27T21:57:10.800Z,97400.41
2023-05-27T21:59:14.769Z,97402.09
2023-05-27T22:01:17.559Z,97395.97
2023-05-27T22:03:20.363Z,97391.84
2023-05-27T22:05:23.071Z,97393.63
2023-05-27T22:07:25.718Z,97393.44
2023-05-27T22:09:28.344Z,97394.47
2023-05-27T22:11:30.979Z,97393.31
2023-05-27T22:13:33.673Z,97396.66
2023-05-27T22:15:37.625Z,97389.25
2023-05-27T22:17:40.370Z,97381.63
2023-05-27T22:19:43.912Z,97379.28
2023-05-27T22:21:46.517Z,97382.16
2023-05-27T22:23:49.217Z,97381.41
2023-05-27T22:25:51.974Z,97380.53
2023-05-27T22:27:55.646Z,97383.28
2023-05-27T22:29:58.273Z,97375.88
2023-05-27T22:32:02.531Z,97376.38
2023-05-27T22:34:06.186Z,97374.13
2023-05-27T22:36:12.023Z,97372.66
2023-05-27T22:38:14.844Z,97371.47
2023-05-27T22:40:19.125Z,97375.34
2023-05-27T22:42:21.707Z,97375.44
2023-05-27T22:44:24.386Z,97375.72
2023-05-27T22:46:29.973Z,97367.94
2023-05-27T22:48:34.076Z,97375.19
2023-05-27T22:50:36.807Z,97371.72
2023-05-27T22:52:39.622Z,97368.44
2023-05-27T22:54:42.310Z,97368.44
2023-05-27T22:56:45.010Z,97364.94
2023-05-27T22:58:48.508Z,97361.34
2023-05-27T23:00:51.326Z,97356.09
2023-05-27T23:02:54.030Z,97364.94
2023-05-27T23:04:58.128Z,97362.41
2023-05-27T23:07:00.908Z,97367.03
2023-05-27T23:09:03.699Z,97369.56
2023-05-27T23:11:06.565Z,97354.97
2023-05-27T23:13:09.452Z,97365.72
2023-05-27T23:15:12.161Z,97363.84
2023-05-27T23:17:14.874Z,97362.25
2023-05-27T23:19:17.523Z,97365.06
2023-05-27T23:21:21.579Z,97360.66
2023-05-27T23:23:24.186Z,97363.41
2023-05-27T23:25:26.981Z,97360.66
2023-05-27T23:27:29.587Z,97359.81
2023-05-27T23:29:32.278Z,97367.31
2023-05-27T23:31:34.939Z,97363.19
2023-05-27T23:33:37.569Z,97364.50
2023-05-27T23:35:40.222Z,97368.31
2023-05-27T23:37:44.204Z,97368.00
2023-05-27T23:39:46.888Z,97365.19
2023-05-27T23:41:49.622Z,97365.56
2023-05-27T23:43:52.323Z,97358.03
2023-05-27T23:45:55.264Z,97355.59
2023-05-27T23:47:58.267Z,97350.44
2023-05-27T23:50:01.029Z,97345.34
2023-05-27T23:52:04.030Z,97348.91
2023-05-27T23:54:08.081Z,97349.19
2023-05-27T23:56:10.847Z,97352.13
2023-05-27T23:58:15.393Z,97352.13
